sensor_id;sensor_type;location;lat;lon;timestamp;P1;durP1;ratioP1;P2;durP2;ratioP2
30850;SDS011;17567;48.382;9.102;2024-01-15T00:00:44;30.47;;;11.20;;
30850;SDS011;17567;48.382;9.102;2024-01-15T00:05:45;22.40;;;10.83;;
30850;SDS011;17567;48.382;9.102;2024-01-15T00:10:46;30.03;;;12.60;;
30850;SDS011;17567;48.382;9.102;2024-01-15T00:15:47;32.83;;;13.00;;
30850;SDS011;17567;48.382;9.102;2024-01-15T00:20:48;29.10;;;12.27;;
30850;SDS011;17567;48.382;9.102;2024-01-15T00:25:50;31.03;;;12.47;;
30850;SDS011;17567;48.382;9.102;2024-01-15T00:30:52;31.23;;;12.77;;
30850;SDS011;17567;48.382;9.102;2024-01-15T00:35:53;27.97;;;12.40;;
30850;SDS011;17567;48.382;9.102;2024-01-15T00:40:54;34.97;;;13.00;;
30850;SDS011;17567;48.382;9.102;2024-01-15T00:45:55;30.67;;;13.57;;
30850;SDS011;17567;48.382;9.102;2024-01-15T00:50:56;33.27;;;13.03;;
30850;SDS011;17567;48.382;9.102;2024-01-15T00:55:57;31.50;;;11.40;;
30850;SDS011;17567;48.382;9.102;2024-01-15T01:00:59;31.13;;;13.17;;
30850;SDS011;17567;48.382;9.102;2024-01-15T01:06:00;29.87;;;13.00;;
30850;SDS011;17567;48.382;9.102;2024-01-15T01:11:01;34.00;;;13.83;;
30850;SDS011;17567;48.382;9.102;2024-01-15T01:16:02;34.30;;;14.33;;
30850;SDS011;17567;48.382;9.102;2024-01-15T01:21:03;36.93;;;13.00;;
30850;SDS011;17567;48.382;9.102;2024-01-15T01:26:04;27.67;;;11.43;;
30850;SDS011;17567;48.382;9.102;2024-01-15T01:31:05;26.43;;;10.77;;
30850;SDS011;17567;48.382;9.102;2024-01-15T01:36:08;31.37;;;11.57;;
30850;SDS011;17567;48.382;9.102;2024-01-15T01:41:10;33.87;;;11.67;;
30850;SDS011;17567;48.382;9.102;2024-01-15T01:46:11;34.90;;;12.60;;
30850;SDS011;17567;48.382;9.102;2024-01-15T01:51:12;25.97;;;11.33;;
30850;SDS011;17567;48.382;9.102;2024-01-15T01:56:14;25.33;;;10.47;;
30850;SDS011;17567;48.382;9.102;2024-01-15T02:01:15;27.47;;;11.03;;
30850;SDS011;17567;48.382;9.102;2024-01-15T02:06:16;25.93;;;11.10;;
30850;SDS011;17567;48.382;9.102;2024-01-15T02:11:18;25.57;;;10.77;;
30850;SDS011;17567;48.382;9.102;2024-01-15T02:16:19;27.03;;;10.70;;
30850;SDS011;17567;48.382;9.102;2024-01-15T02:21:20;24.87;;;9.90;;
30850;SDS011;17567;48.382;9.102;2024-01-15T02:26:21;26.47;;;11.03;;
30850;SDS011;17567;48.382;9.102;2024-01-15T02:31:22;25.20;;;10.47;;
30850;SDS011;17567;48.382;9.102;2024-01-15T02:36:23;23.90;;;9.77;;
30850;SDS011;17567;48.382;9.102;2024-01-15T02:41:24;28.13;;;10.30;;
30850;SDS011;17567;48.382;9.102;2024-01-15T02:46:25;24.37;;;8.87;;
30850;SDS011;17567;48.382;9.102;2024-01-15T02:51:26;19.47;;;8.97;;
30850;SDS011;17567;48.382;9.102;2024-01-15T02:56:27;16.00;;;6.77;;
30850;SDS011;17567;48.382;9.102;2024-01-15T03:01:28;15.40;;;7.23;;
30850;SDS011;17567;48.382;9.102;2024-01-15T03:06:31;15.47;;;6.63;;
30850;SDS011;17567;48.382;9.102;2024-01-15T03:11:38;14.67;;;7.07;;
30850;SDS011;17567;48.382;9.102;2024-01-15T03:16:40;19.33;;;8.47;;
30850;SDS011;17567;48.382;9.102;2024-01-15T03:21:41;20.37;;;9.63;;
30850;SDS011;17567;48.382;9.102;2024-01-15T03:26:42;20.30;;;9.03;;
30850;SDS011;17567;48.382;9.102;2024-01-15T03:31:43;24.20;;;10.17;;
30850;SDS011;17567;48.382;9.102;2024-01-15T03:36:45;18.00;;;8.03;;
30850;SDS011;17567;48.382;9.102;2024-01-15T03:41:46;19.37;;;9.10;;
30850;SDS011;17567;48.382;9.102;2024-01-15T03:46:47;20.83;;;9.07;;
30850;SDS011;17567;48.382;9.102;2024-01-15T03:51:48;20.40;;;8.70;;
30850;SDS011;17567;48.382;9.102;2024-01-15T03:56:49;21.23;;;9.47;;
30850;SDS011;17567;48.382;9.102;2024-01-15T04:01:50;22.97;;;8.33;;
30850;SDS011;17567;48.382;9.102;2024-01-15T04:06:51;19.43;;;8.40;;
30850;SDS011;17567;48.382;9.102;2024-01-15T04:11:52;22.17;;;9.10;;
30850;SDS011;17567;48.382;9.102;2024-01-15T04:16:53;22.80;;;8.83;;
30850;SDS011;17567;48.382;9.102;2024-01-15T04:21:55;21.70;;;9.10;;
30850;SDS011;17567;48.382;9.102;2024-01-15T04:26:56;27.43;;;11.13;;
30850;SDS011;17567;48.382;9.102;2024-01-15T04:31:57;26.43;;;10.43;;
30850;SDS011;17567;48.382;9.102;2024-01-15T04:36:59;25.03;;;10.37;;
30850;SDS011;17567;48.382;9.102;2024-01-15T04:42:00;25.87;;;10.50;;
30850;SDS011;17567;48.382;9.102;2024-01-15T04:47:02;23.17;;;10.70;;
30850;SDS011;17567;48.382;9.102;2024-01-15T04:52:03;26.20;;;10.63;;
30850;SDS011;17567;48.382;9.102;2024-01-15T04:57:04;24.10;;;10.73;;
30850;SDS011;17567;48.382;9.102;2024-01-15T05:02:06;23.23;;;10.40;;
30850;SDS011;17567;48.382;9.102;2024-01-15T05:07:07;24.40;;;10.83;;
30850;SDS011;17567;48.382;9.102;2024-01-15T05:12:08;24.23;;;11.07;;
30850;SDS011;17567;48.382;9.102;2024-01-15T05:17:09;25.83;;;11.73;;
30850;SDS011;17567;48.382;9.102;2024-01-15T05:22:10;23.57;;;10.63;;
30850;SDS011;17567;48.382;9.102;2024-01-15T05:27:11;25.60;;;11.03;;
30850;SDS011;17567;48.382;9.102;2024-01-15T05:32:13;26.13;;;11.13;;
30850;SDS011;17567;48.382;9.102;2024-01-15T05:37:14;27.90;;;9.77;;
30850;SDS011;17567;48.382;9.102;2024-01-15T05:42:15;23.23;;;10.70;;
30850;SDS011;17567;48.382;9.102;2024-01-15T05:47:16;19.70;;;9.47;;
30850;SDS011;17567;48.382;9.102;2024-01-15T05:52:18;18.87;;;9.17;;
30850;SDS011;17567;48.382;9.102;2024-01-15T05:57:21;25.07;;;10.60;;
30850;SDS011;17567;48.382;9.102;2024-01-15T06:02:22;24.50;;;10.93;;
30850;SDS011;17567;48.382;9.102;2024-01-15T06:07:24;24.90;;;11.03;;
30850;SDS011;17567;48.382;9.102;2024-01-15T06:12:25;24.10;;;9.93;;
30850;SDS011;17567;48.382;9.102;2024-01-15T06:17:27;27.10;;;10.90;;
30850;SDS011;17567;48.382;9.102;2024-01-15T06:22:29;25.63;;;9.97;;
30850;SDS011;17567;48.382;9.102;2024-01-15T06:27:30;19.83;;;9.13;;
30850;SDS011;17567;48.382;9.102;2024-01-15T06:32:31;19.40;;;9.13;;
30850;SDS011;17567;48.382;9.102;2024-01-15T06:37:32;19.47;;;8.60;;
30850;SDS011;17567;48.382;9.102;2024-01-15T06:42:33;19.00;;;7.93;;
30850;SDS011;17567;48.382;9.102;2024-01-15T06:47:34;15.13;;;7.43;;
30850;SDS011;17567;48.382;9.102;2024-01-15T06:52:35;13.67;;;6.37;;
30850;SDS011;17567;48.382;9.102;2024-01-15T06:57:36;13.93;;;6.23;;
30850;SDS011;17567;48.382;9.102;2024-01-15T07:02:37;15.93;;;7.17;;
30850;SDS011;17567;48.382;9.102;2024-01-15T07:07:38;16.87;;;8.40;;
30850;SDS011;17567;48.382;9.102;2024-01-15T07:12:41;16.37;;;7.07;;
30850;SDS011;17567;48.382;9.102;2024-01-15T07:17:43;18.53;;;8.23;;
30850;SDS011;17567;48.382;9.102;2024-01-15T07:22:44;17.43;;;7.90;;
30850;SDS011;17567;48.382;9.102;2024-01-15T07:27:45;17.53;;;6.63;;
30850;SDS011;17567;48.382;9.102;2024-01-15T07:32:47;12.53;;;6.67;;
30850;SDS011;17567;48.382;9.102;2024-01-15T07:37:48;14.67;;;7.07;;
30850;SDS011;17567;48.382;9.102;2024-01-15T07:42:50;9.63;;;4.97;;
30850;SDS011;17567;48.382;9.102;2024-01-15T07:47:53;7.03;;;4.60;;
30850;SDS011;17567;48.382;9.102;2024-01-15T07:52:55;8.13;;;4.20;;
30850;SDS011;17567;48.382;9.102;2024-01-15T07:57:56;5.97;;;3.80;;
30850;SDS011;17567;48.382;9.102;2024-01-15T08:03:04;6.60;;;3.90;;
30850;SDS011;17567;48.382;9.102;2024-01-15T08:24:06;4.77;;;3.07;;
30850;SDS011;17567;48.382;9.102;2024-01-15T08:29:08;3.20;;;2.90;;
30850;SDS011;17567;48.382;9.102;2024-01-15T08:34:09;3.40;;;3.10;;
30850;SDS011;17567;48.382;9.102;2024-01-15T08:39:10;4.80;;;2.90;;
30850;SDS011;17567;48.382;9.102;2024-01-15T08:44:12;3.93;;;2.63;;
30850;SDS011;17567;48.382;9.102;2024-01-15T08:49:13;3.10;;;2.67;;
30850;SDS011;17567;48.382;9.102;2024-01-15T08:54:14;3.83;;;3.07;;
30850;SDS011;17567;48.382;9.102;2024-01-15T08:59:15;3.40;;;2.33;;
30850;SDS011;17567;48.382;9.102;2024-01-15T09:04:16;2.53;;;2.33;;
30850;SDS011;17567;48.382;9.102;2024-01-15T09:09:17;4.03;;;2.67;;
30850;SDS011;17567;48.382;9.102;2024-01-15T09:14:18;4.30;;;3.27;;
30850;SDS011;17567;48.382;9.102;2024-01-15T09:19:22;3.83;;;2.73;;
30850;SDS011;17567;48.382;9.102;2024-01-15T09:24:23;7.77;;;2.73;;
30850;SDS011;17567;48.382;9.102;2024-01-15T09:29:24;3.70;;;2.60;;
30850;SDS011;17567;48.382;9.102;2024-01-15T09:34:25;4.70;;;2.60;;
30850;SDS011;17567;48.382;9.102;2024-01-15T09:39:27;3.83;;;2.90;;
30850;SDS011;17567;48.382;9.102;2024-01-15T09:44:28;5.57;;;3.20;;
30850;SDS011;17567;48.382;9.102;2024-01-15T09:49:29;3.40;;;2.43;;
30850;SDS011;17567;48.382;9.102;2024-01-15T09:54:30;3.43;;;2.73;;
30850;SDS011;17567;48.382;9.102;2024-01-15T09:59:31;7.40;;;3.40;;
30850;SDS011;17567;48.382;9.102;2024-01-15T10:04:33;4.63;;;2.63;;
30850;SDS011;17567;48.382;9.102;2024-01-15T10:09:34;3.30;;;2.73;;
30850;SDS011;17567;48.382;9.102;2024-01-15T10:14:35;2.73;;;2.53;;
30850;SDS011;17567;48.382;9.102;2024-01-15T10:19:36;8.17;;;5.03;;
30850;SDS011;17567;48.382;9.102;2024-01-15T10:24:37;5.30;;;2.87;;
30850;SDS011;17567;48.382;9.102;2024-01-15T11:33:36;3.67;;;3.10;;
30850;SDS011;17567;48.382;9.102;2024-01-15T11:38:48;6.50;;;3.07;;
30850;SDS011;17567;48.382;9.102;2024-01-15T11:43:50;6.63;;;3.13;;
30850;SDS011;17567;48.382;9.102;2024-01-15T11:48:51;5.97;;;3.50;;
30850;SDS011;17567;48.382;9.102;2024-01-15T11:53:58;4.20;;;2.50;;
30850;SDS011;17567;48.382;9.102;2024-01-15T11:59:03;5.17;;;2.73;;
30850;SDS011;17567;48.382;9.102;2024-01-15T12:04:04;3.77;;;2.80;;
30850;SDS011;17567;48.382;9.102;2024-01-15T12:09:09;7.50;;;3.20;;
30850;SDS011;17567;48.382;9.102;2024-01-15T12:14:10;4.00;;;3.10;;
30850;SDS011;17567;48.382;9.102;2024-01-15T12:19:12;4.53;;;3.13;;
30850;SDS011;17567;48.382;9.102;2024-01-15T12:24:14;3.10;;;2.80;;
30850;SDS011;17567;48.382;9.102;2024-01-15T12:29:17;5.27;;;3.20;;
30850;SDS011;17567;48.382;9.102;2024-01-15T12:34:18;3.33;;;2.50;;
30850;SDS011;17567;48.382;9.102;2024-01-15T12:39:20;4.67;;;3.67;;
30850;SDS011;17567;48.382;9.102;2024-01-15T12:44:21;3.90;;;3.47;;
30850;SDS011;17567;48.382;9.102;2024-01-15T12:49:23;8.37;;;4.37;;
30850;SDS011;17567;48.382;9.102;2024-01-15T12:54:25;3.97;;;3.07;;
30850;SDS011;17567;48.382;9.102;2024-01-15T12:59:26;3.63;;;3.20;;
30850;SDS011;17567;48.382;9.102;2024-01-15T13:04:32;7.00;;;3.73;;
30850;SDS011;17567;48.382;9.102;2024-01-15T13:09:33;4.80;;;3.10;;
30850;SDS011;17567;48.382;9.102;2024-01-15T13:14:35;4.20;;;2.87;;
30850;SDS011;17567;48.382;9.102;2024-01-15T13:19:36;5.40;;;4.07;;
30850;SDS011;17567;48.382;9.102;2024-01-15T13:24:37;6.57;;;4.53;;
30850;SDS011;17567;48.382;9.102;2024-01-15T13:29:38;4.13;;;3.17;;
30850;SDS011;17567;48.382;9.102;2024-01-15T13:34:39;7.97;;;3.87;;
30850;SDS011;17567;48.382;9.102;2024-01-15T13:39:41;6.90;;;3.83;;
30850;SDS011;17567;48.382;9.102;2024-01-15T13:44:42;4.40;;;3.33;;
30850;SDS011;17567;48.382;9.102;2024-01-15T13:49:43;9.43;;;4.57;;
30850;SDS011;17567;48.382;9.102;2024-01-15T13:54:44;5.80;;;4.00;;
30850;SDS011;17567;48.382;9.102;2024-01-15T13:59:45;8.10;;;4.20;;
30850;SDS011;17567;48.382;9.102;2024-01-15T14:04:47;6.30;;;3.70;;
30850;SDS011;17567;48.382;9.102;2024-01-15T14:09:48;6.90;;;4.63;;
30850;SDS011;17567;48.382;9.102;2024-01-15T14:14:49;5.07;;;3.90;;
30850;SDS011;17567;48.382;9.102;2024-01-15T14:19:50;7.83;;;4.10;;
30850;SDS011;17567;48.382;9.102;2024-01-15T14:24:51;12.10;;;4.77;;
30850;SDS011;17567;48.382;9.102;2024-01-15T14:29:52;6.47;;;4.10;;
30850;SDS011;17567;48.382;9.102;2024-01-15T14:34:53;6.53;;;4.30;;
30850;SDS011;17567;48.382;9.102;2024-01-15T14:39:56;7.17;;;4.80;;
30850;SDS011;17567;48.382;9.102;2024-01-15T14:44:57;8.33;;;4.67;;
30850;SDS011;17567;48.382;9.102;2024-01-15T14:49:58;6.97;;;4.37;;
30850;SDS011;17567;48.382;9.102;2024-01-15T14:55:00;6.00;;;4.63;;
30850;SDS011;17567;48.382;9.102;2024-01-15T15:00:01;5.83;;;4.50;;
30850;SDS011;17567;48.382;9.102;2024-01-15T15:05:03;7.87;;;4.23;;
30850;SDS011;17567;48.382;9.102;2024-01-15T15:10:07;11.20;;;6.97;;
30850;SDS011;17567;48.382;9.102;2024-01-15T15:15:25;17.90;;;11.83;;
30850;SDS011;17567;48.382;9.102;2024-01-15T15:20:26;9.33;;;4.63;;
30850;SDS011;17567;48.382;9.102;2024-01-15T15:25:27;7.10;;;5.23;;
30850;SDS011;17567;48.382;9.102;2024-01-15T15:30:29;8.00;;;5.30;;
30850;SDS011;17567;48.382;9.102;2024-01-15T15:35:30;8.73;;;5.73;;
30850;SDS011;17567;48.382;9.102;2024-01-15T15:40:31;7.03;;;5.10;;
30850;SDS011;17567;48.382;9.102;2024-01-15T15:45:32;6.27;;;4.30;;
30850;SDS011;17567;48.382;9.102;2024-01-15T15:50:33;7.97;;;4.27;;
30850;SDS011;17567;48.382;9.102;2024-01-15T15:55:34;6.00;;;4.73;;
30850;SDS011;17567;48.382;9.102;2024-01-15T16:00:39;6.87;;;4.80;;
30850;SDS011;17567;48.382;9.102;2024-01-15T16:05:40;5.17;;;4.23;;
30850;SDS011;17567;48.382;9.102;2024-01-15T16:10:41;9.20;;;4.47;;
30850;SDS011;17567;48.382;9.102;2024-01-15T16:15:42;6.47;;;4.43;;
30850;SDS011;17567;48.382;9.102;2024-01-15T16:20:43;4.73;;;3.93;;
30850;SDS011;17567;48.382;9.102;2024-01-15T16:25:44;6.23;;;5.63;;
30850;SDS011;17567;48.382;9.102;2024-01-15T16:30:45;5.93;;;4.50;;
30850;SDS011;17567;48.382;9.102;2024-01-15T16:35:46;5.30;;;4.50;;
30850;SDS011;17567;48.382;9.102;2024-01-15T16:40:47;5.30;;;4.13;;
30850;SDS011;17567;48.382;9.102;2024-01-15T16:45:48;5.07;;;4.17;;
30850;SDS011;17567;48.382;9.102;2024-01-15T16:50:49;5.00;;;3.97;;
30850;SDS011;17567;48.382;9.102;2024-01-15T16:55:53;7.43;;;5.20;;
30850;SDS011;17567;48.382;9.102;2024-01-15T17:00:54;8.13;;;6.33;;
30850;SDS011;17567;48.382;9.102;2024-01-15T17:05:55;7.90;;;7.10;;
30850;SDS011;17567;48.382;9.102;2024-01-15T17:10:56;6.87;;;5.00;;
30850;SDS011;17567;48.382;9.102;2024-01-15T17:15:57;13.87;;;6.97;;
30850;SDS011;17567;48.382;9.102;2024-01-15T17:20:58;17.80;;;12.67;;
30850;SDS011;17567;48.382;9.102;2024-01-15T17:26:00;5.77;;;4.63;;
30850;SDS011;17567;48.382;9.102;2024-01-15T17:31:01;5.63;;;4.60;;
30850;SDS011;17567;48.382;9.102;2024-01-15T17:36:03;6.97;;;4.20;;
30850;SDS011;17567;48.382;9.102;2024-01-15T17:41:05;6.80;;;4.70;;
30850;SDS011;17567;48.382;9.102;2024-01-15T17:51:29;6.70;;;4.67;;
30850;SDS011;17567;48.382;9.102;2024-01-15T17:56:31;7.27;;;6.00;;
30850;SDS011;17567;48.382;9.102;2024-01-15T18:01:32;5.93;;;4.53;;
30850;SDS011;17567;48.382;9.102;2024-01-15T18:06:33;7.47;;;4.53;;
30850;SDS011;17567;48.382;9.102;2024-01-15T18:11:34;7.53;;;5.40;;
30850;SDS011;17567;48.382;9.102;2024-01-15T18:16:36;7.40;;;5.40;;
30850;SDS011;17567;48.382;9.102;2024-01-15T18:21:37;9.67;;;5.53;;
30850;SDS011;17567;48.382;9.102;2024-01-15T18:26:38;14.83;;;10.33;;
30850;SDS011;17567;48.382;9.102;2024-01-15T18:31:39;6.87;;;4.87;;
30850;SDS011;17567;48.382;9.102;2024-01-15T18:36:40;4.57;;;3.83;;
30850;SDS011;17567;48.382;9.102;2024-01-15T18:41:45;11.10;;;8.37;;
30850;SDS011;17567;48.382;9.102;2024-01-15T18:46:46;5.43;;;4.37;;
30850;SDS011;17567;48.382;9.102;2024-01-15T18:51:47;7.10;;;4.63;;
30850;SDS011;17567;48.382;9.102;2024-01-15T18:56:51;17.03;;;14.03;;
30850;SDS011;17567;48.382;9.102;2024-01-15T19:01:52;10.17;;;7.30;;
30850;SDS011;17567;48.382;9.102;2024-01-15T19:06:53;6.90;;;4.60;;
30850;SDS011;17567;48.382;9.102;2024-01-15T19:11:54;13.13;;;4.80;;
30850;SDS011;17567;48.382;9.102;2024-01-15T19:16:55;6.27;;;4.27;;
30850;SDS011;17567;48.382;9.102;2024-01-15T19:21:56;7.73;;;4.47;;
30850;SDS011;17567;48.382;9.102;2024-01-15T19:26:58;7.17;;;4.70;;
30850;SDS011;17567;48.382;9.102;2024-01-15T19:31:59;6.27;;;4.33;;
30850;SDS011;17567;48.382;9.102;2024-01-15T19:37:03;7.77;;;4.27;;
30850;SDS011;17567;48.382;9.102;2024-01-15T19:42:04;6.90;;;4.33;;
30850;SDS011;17567;48.382;9.102;2024-01-15T19:47:06;7.53;;;5.17;;
30850;SDS011;17567;48.382;9.102;2024-01-15T19:52:07;14.00;;;6.20;;
30850;SDS011;17567;48.382;9.102;2024-01-15T19:57:08;7.00;;;5.60;;
30850;SDS011;17567;48.382;9.102;2024-01-15T20:02:09;6.67;;;5.07;;
30850;SDS011;17567;48.382;9.102;2024-01-15T20:07:10;6.17;;;4.67;;
30850;SDS011;17567;48.382;9.102;2024-01-15T20:12:15;8.03;;;4.77;;
30850;SDS011;17567;48.382;9.102;2024-01-15T20:17:17;8.03;;;4.60;;
30850;SDS011;17567;48.382;9.102;2024-01-15T20:22:18;6.10;;;4.50;;
30850;SDS011;17567;48.382;9.102;2024-01-15T20:27:19;8.47;;;5.23;;
30850;SDS011;17567;48.382;9.102;2024-01-15T20:32:20;9.27;;;5.73;;
30850;SDS011;17567;48.382;9.102;2024-01-15T20:37:21;9.27;;;5.10;;
30850;SDS011;17567;48.382;9.102;2024-01-15T20:42:22;9.90;;;4.47;;
30850;SDS011;17567;48.382;9.102;2024-01-15T20:47:23;9.20;;;4.83;;
30850;SDS011;17567;48.382;9.102;2024-01-15T20:52:24;9.07;;;5.93;;
30850;SDS011;17567;48.382;9.102;2024-01-15T20:57:25;23.93;;;10.23;;
30850;SDS011;17567;48.382;9.102;2024-01-15T21:02:26;7.57;;;4.97;;
30850;SDS011;17567;48.382;9.102;2024-01-15T21:07:27;9.57;;;4.60;;
30850;SDS011;17567;48.382;9.102;2024-01-15T21:12:28;5.87;;;4.00;;
30850;SDS011;17567;48.382;9.102;2024-01-15T21:17:29;8.33;;;5.00;;
30850;SDS011;17567;48.382;9.102;2024-01-15T21:22:32;6.20;;;4.37;;
30850;SDS011;17567;48.382;9.102;2024-01-15T21:27:33;6.70;;;4.67;;
30850;SDS011;17567;48.382;9.102;2024-01-15T21:32:34;6.07;;;4.07;;
30850;SDS011;17567;48.382;9.102;2024-01-15T21:37:35;9.57;;;6.03;;
30850;SDS011;17567;48.382;9.102;2024-01-15T21:42:36;6.70;;;4.60;;
30850;SDS011;17567;48.382;9.102;2024-01-15T21:47:37;4.07;;;3.57;;
30850;SDS011;17567;48.382;9.102;2024-01-15T21:52:38;6.90;;;3.97;;
30850;SDS011;17567;48.382;9.102;2024-01-15T21:57:43;5.70;;;3.17;;
30850;SDS011;17567;48.382;9.102;2024-01-15T22:02:44;7.03;;;3.83;;
30850;SDS011;17567;48.382;9.102;2024-01-15T22:07:45;5.83;;;4.17;;
30850;SDS011;17567;48.382;9.102;2024-01-15T22:12:46;5.40;;;3.53;;
30850;SDS011;17567;48.382;9.102;2024-01-15T22:17:47;5.93;;;4.00;;
30850;SDS011;17567;48.382;9.102;2024-01-15T22:22:48;7.43;;;4.40;;
30850;SDS011;17567;48.382;9.102;2024-01-15T22:27:49;5.20;;;3.37;;
30850;SDS011;17567;48.382;9.102;2024-01-15T22:32:53;5.10;;;3.80;;
30850;SDS011;17567;48.382;9.102;2024-01-15T22:37:54;4.67;;;3.27;;
30850;SDS011;17567;48.382;9.102;2024-01-15T22:42:55;4.37;;;3.67;;
30850;SDS011;17567;48.382;9.102;2024-01-15T22:47:56;7.20;;;2.90;;
30850;SDS011;17567;48.382;9.102;2024-01-15T22:52:57;5.27;;;3.43;;
30850;SDS011;17567;48.382;9.102;2024-01-15T22:57:58;4.37;;;3.40;;
30850;SDS011;17567;48.382;9.102;2024-01-15T23:02:59;4.07;;;3.30;;
30850;SDS011;17567;48.382;9.102;2024-01-15T23:08:02;4.23;;;3.60;;
30850;SDS011;17567;48.382;9.102;2024-01-15T23:13:03;4.97;;;2.93;;
30850;SDS011;17567;48.382;9.102;2024-01-15T23:18:04;3.30;;;3.00;;
30850;SDS011;17567;48.382;9.102;2024-01-15T23:23:06;6.00;;;3.17;;
30850;SDS011;17567;48.382;9.102;2024-01-15T23:28:07;7.73;;;3.30;;
30850;SDS011;17567;48.382;9.102;2024-01-15T23:33:08;3.80;;;3.00;;
30850;SDS011;17567;48.382;9.102;2024-01-15T23:38:10;3.77;;;2.90;;
30850;SDS011;17567;48.382;9.102;2024-01-15T23:43:11;3.97;;;3.13;;
30850;SDS011;17567;48.382;9.102;2024-01-15T23:48:31;5.37;;;2.80;;
30850;SDS011;17567;48.382;9.102;2024-01-15T23:53:32;4.33;;;3.07;;
30850;SDS011;17567;48.382;9.102;2024-01-15T23:58:33;6.33;;;3.17;;
